createdAt,value
2023-12-23T00:01:16.314Z,97921.78
2023-12-23T00:04:18.223Z,97920.13
2023-12-23T00:07:20.365Z,97915.03
2023-12-23T00:10:22.604Z,97939.13
2023-12-23T00:13:24.494Z,97944.28
2023-12-23T00:16:27.803Z,97953.66
2023-12-23T00:19:32.169Z,97960.56
2023-12-23T00:22:34.129Z,97950.19
2023-12-23T00:25:36.544Z,97941.66
2023-12-23T00:28:38.390Z,97934.72
2023-12-23T00:31:40.373Z,97957.13
2023-12-23T00:34:42.305Z,97939.19
2023-12-23T00:37:44.297Z,97933.38
2023-12-23T00:40:46.161Z,97949.66
2023-12-23T00:43:47.990Z,97972.06
2023-12-23T00:46:50.010Z,97962.59
2023-12-23T00:49:51.898Z,97965.25
2023-12-23T00:52:54.364Z,97970.44
2023-12-23T00:55:56.293Z,97975.63
2023-12-23T00:58:58.231Z,97969.63
2023-12-23T01:02:00.034Z,97979.88
2023-12-23T01:05:02.740Z,97965.25
2023-12-23T01:08:05.194Z,97971.19
2023-12-23T01:11:07.250Z,97985.94
2023-12-23T01:14:09.515Z,97984.38
2023-12-23T01:17:11.709Z,97921.34
2023-12-23T01:20:13.778Z,98014.28
2023-12-23T01:23:15.962Z,98004.88
2023-12-23T01:26:17.976Z,97987.59
2023-12-23T01:29:20.115Z,97997.72
2023-12-23T01:32:22.526Z,97985.56
2023-12-23T01:35:24.537Z,97982.13
2023-12-23T01:38:26.487Z,97969.28
2023-12-23T01:41:28.279Z,97964.84
2023-12-23T01:44:30.174Z,97964.94
2023-12-23T01:47:32.056Z,97974.38
2023-12-23T01:50:34.106Z,97982.28
2023-12-23T01:53:36.470Z,97975.25
2023-12-23T01:56:38.403Z,97977.00
2023-12-23T01:59:40.363Z,97971.94
2023-12-23T02:02:42.353Z,97950.47
2023-12-23T02:05:46.937Z,97959.09
2023-12-23T02:08:49.075Z,97963.50
2023-12-23T02:12:06.657Z,97961.06
2023-12-23T02:15:16.566Z,97961.78
2023-12-23T02:18:18.613Z,97928.25
2023-12-23T02:21:20.407Z,97938.50
2023-12-23T02:24:22.423Z,97936.00
2023-12-23T02:27:31.062Z,97947.19
2023-12-23T02:30:34.978Z,97949.00
2023-12-23T02:33:37.469Z,97948.25
2023-12-23T02:36:40.285Z,97909.28
2023-12-23T02:39:42.203Z,97968.25
2023-12-23T02:42:44.016Z,97946.41
2023-12-23T02:45:45.844Z,97984.91
2023-12-23T02:48:47.750Z,97965.25
2023-12-23T02:51:49.627Z,97985.81
2023-12-23T02:54:51.600Z,97942.44
2023-12-23T02:57:53.884Z,97957.84
2023-12-23T03:00:55.850Z,97987.72
2023-12-23T03:03:57.714Z,97978.19
2023-12-23T03:06:59.940Z,97991.00
2023-12-23T03:10:01.972Z,97995.34
2023-12-23T03:13:04.326Z,97991.94
2023-12-23T03:16:19.109Z,97993.53
2023-12-23T03:19:20.994Z,97998.66
2023-12-23T03:22:23.073Z,97972.41
2023-12-23T03:25:25.291Z,97997.81
2023-12-23T03:28:27.216Z,98001.22
2023-12-23T03:31:29.114Z,98015.69
2023-12-23T03:34:30.949Z,97993.69
2023-12-23T03:37:32.690Z,98020.03
2023-12-23T03:40:36.400Z,98023.25
2023-12-23T03:43:39.346Z,98013.97
2023-12-23T03:46:41.248Z,98034.44
2023-12-23T03:49:43.668Z,98037.84
2023-12-23T03:52:45.498Z,98044.56
2023-12-23T03:55:47.714Z,98042.75
2023-12-23T03:58:49.672Z,98037.56
2023-12-23T04:01:51.704Z,98052.03
2023-12-23T04:04:53.711Z,97981.22
2023-12-23T04:07:55.721Z,98049.34
2023-12-23T04:10:57.558Z,98054.47
2023-12-23T04:13:59.739Z,98059.72
2023-12-23T04:17:01.606Z,98074.41
2023-12-23T04:20:03.729Z,98084.81
2023-12-23T04:23:05.665Z,98078.84
2023-12-23T04:26:09.686Z,98087.72
2023-12-23T04:29:12.692Z,98090.50
2023-12-23T04:32:14.886Z,98101.88
2023-12-23T04:35:17.416Z,98090.75
2023-12-23T04:38:20.208Z,98083.03
2023-12-23T04:41:22.310Z,98089.91
2023-12-23T04:44:24.707Z,98056.75
2023-12-23T04:47:26.824Z,98090.66
2023-12-23T04:50:28.797Z,98063.41
2023-12-23T04:53:30.700Z,98110.50
2023-12-23T04:56:32.655Z,98100.94
2023-12-23T04:59:34.610Z,98099.13
2023-12-23T05:02:36.540Z,98114.53
2023-12-23T05:05:40.181Z,98115.63
2023-12-23T05:08:42.166Z,98135.19
2023-12-23T05:11:44.018Z,98120.81
2023-12-23T05:14:45.845Z,98149.84
2023-12-23T05:17:47.807Z,98157.81
2023-12-23T05:20:49.667Z,98163.91
2023-12-23T05:23:51.581Z,98165.81
2023-12-23T05:26:53.386Z,98165.06
2023-12-23T05:29:56.887Z,98168.72
2023-12-23T05:32:58.732Z,98184.91
2023-12-23T05:36:00.728Z,98188.53
2023-12-23T05:39:02.612Z,98130.59
2023-12-23T05:42:04.657Z,98199.81
2023-12-23T05:45:07.340Z,98200.84
2023-12-23T05:48:09.374Z,98206.91
2023-12-23T05:51:12.294Z,98201.75
2023-12-23T05:54:14.141Z,98199.25
2023-12-23T05:57:16.205Z,98184.69
2023-12-23T06:00:21.402Z,98188.06
2023-12-23T06:03:23.336Z,98212.22
2023-12-23T06:06:25.240Z,98214.78
2023-12-23T06:09:27.417Z,98241.44
2023-12-23T06:12:29.294Z,98206.41
2023-12-23T06:15:31.131Z,98237.25
2023-12-23T06:18:34.010Z,98255.41
2023-12-23T06:21:35.908Z,98263.16
2023-12-23T06:24:37.889Z,98257.19
2023-12-23T06:27:39.678Z,98258.06
2023-12-23T06:30:41.674Z,98187.94
2023-12-23T06:33:43.928Z,98274.25
2023-12-23T06:36:45.886Z,98233.34
2023-12-23T06:39:47.774Z,98284.66
2023-12-23T06:42:49.844Z,98308.66
2023-12-23T06:45:51.859Z,98311.22
2023-12-23T06:48:53.924Z,98307.78
2023-12-23T06:51:55.961Z,98318.94
2023-12-23T06:54:57.900Z,98336.09
2023-12-23T06:58:01.555Z,98349.81
2023-12-23T07:01:03.477Z,98352.41
2023-12-23T07:04:05.644Z,98359.28
2023-12-23T07:07:07.885Z,98373.78
2023-12-23T07:10:09.887Z,98390.09
2023-12-23T07:13:11.774Z,98397.78
2023-12-23T07:16:13.722Z,98398.69
2023-12-23T07:19:15.688Z,98409.91
2023-12-23T07:22:17.783Z,98418.41
2023-12-23T07:25:19.716Z,98418.56
2023-12-23T07:28:21.621Z,98434.00
2023-12-23T07:31:23.539Z,98473.66
2023-12-23T07:34:25.485Z,98517.69
2023-12-23T07:37:27.438Z,98497.13
2023-12-23T07:40:31.075Z,98489.47
2023-12-23T07:43:34.114Z,98479.19
2023-12-23T07:46:36.197Z,98481.66
2023-12-23T07:49:39.450Z,98473.91
2023-12-23T07:52:41.787Z,98476.47
2023-12-23T07:55:43.686Z,98485.06
2023-12-23T07:58:45.577Z,98456.09
2023-12-23T08:01:47.821Z,98501.47
2023-12-23T08:04:49.989Z,98510.25
2023-12-23T08:07:52.026Z,98518.06
2023-12-23T08:10:55.537Z,98533.44
2023-12-23T08:13:57.421Z,98542.75
2023-12-23T08:16:59.642Z,98569.09
2023-12-23T08:20:02.035Z,98581.63
2023-12-23T08:23:04.391Z,98593.84
2023-12-23T08:26:06.432Z,98626.88
2023-12-23T08:29:08.345Z,98649.47
2023-12-23T08:32:10.251Z,98673.84
2023-12-23T08:35:12.200Z,98663.81
2023-12-23T08:38:14.177Z,98651.88
2023-12-23T08:41:16.063Z,98629.59
2023-12-23T08:44:18.633Z,98615.13
2023-12-23T08:47:20.522Z,98632.34
2023-12-23T08:50:23.923Z,98651.66
2023-12-23T08:53:25.929Z,98646.56
2023-12-23T08:56:27.890Z,98646.09
2023-12-23T08:59:29.765Z,98649.28
2023-12-23T09:02:31.771Z,98628.59
2023-12-23T09:05:34.057Z,98630.22
2023-12-23T09:08:36.081Z,98638.75
2023-12-23T09:11:45.191Z,98640.34
2023-12-23T09:14:50.365Z,98635.88
2023-12-23T09:17:52.610Z,98644.22
2023-12-23T09:20:54.733Z,98606.56
2023-12-23T09:23:56.878Z,98652.97
2023-12-23T09:27:00.300Z,98669.19
2023-12-23T09:30:02.708Z,98675.94
2023-12-23T09:33:07.238Z,98673.28
2023-12-23T09:36:09.396Z,98674.06
2023-12-23T09:39:11.251Z,98666.34
2023-12-23T09:42:13.425Z,98661.03
2023-12-23T09:45:16.524Z,98645.25
2023-12-23T09:48:18.943Z,98652.66
2023-12-23T09:51:26.715Z,98653.22
2023-12-23T09:54:30.253Z,98629.91
2023-12-23T09:57:33.259Z,98633.19
2023-12-23T10:00:38.211Z,98635.69
2023-12-23T10:03:40.936Z,98632.28
2023-12-23T10:06:42.914Z,98641.06
2023-12-23T10:09:44.678Z,98636.69
2023-12-23T10:12:46.570Z,98607.63
2023-12-23T10:15:48.611Z,98646.00
2023-12-23T10:18:50.461Z,98648.38
2023-12-23T10:21:52.449Z,98652.56
2023-12-23T10:24:54.374Z,98643.84
2023-12-23T10:28:01.306Z,98628.94
2023-12-23T10:31:04.260Z,98626.09
2023-12-23T10:34:13.504Z,98625.22
2023-12-23T10:37:17.162Z,98615.66
2023-12-23T10:40:29.201Z,98612.88
2023-12-23T10:43:31.634Z,98618.78
2023-12-23T10:46:34.481Z,98613.41
2023-12-23T10:49:37.400Z,98618.69
2023-12-23T10:52:39.458Z,98609.97
2023-12-23T10:55:42.001Z,98596.59
2023-12-23T10:58:43.985Z,98607.16
2023-12-23T11:01:47.902Z,98605.88
2023-12-23T11:04:53.132Z,98599.44
2023-12-23T11:08:01.798Z,98607.88
2023-12-23T11:11:09.219Z,98603.28
2023-12-23T11:14:11.120Z,98613.13
2023-12-23T11:17:27.216Z,98616.72
2023-12-23T11:20:38.304Z,98607.44
2023-12-23T11:23:40.260Z,98606.84
2023-12-23T11:26:43.532Z,98570.19
2023-12-23T11:29:45.590Z,98601.63
2023-12-23T11:32:47.727Z,98588.91
2023-12-23T11:35:50.934Z,98604.44
2023-12-23T11:38:53.948Z,98558.34
2023-12-23T11:41:56.507Z,98579.97
2023-12-23T11:44:58.487Z,98612.84
2023-12-23T11:48:00.769Z,98603.34
2023-12-23T11:51:02.993Z,98605.25
2023-12-23T11:54:05.144Z,98604.44
2023-12-23T11:57:07.150Z,98588.91
2023-12-23T12:00:09.756Z,98603.47
2023-12-23T12:03:12.182Z,98597.53
2023-12-23T12:06:14.320Z,98598.53
2023-12-23T12:09:16.316Z,98589.25
2023-12-23T12:12:18.805Z,98572.19
2023-12-23T12:15:20.718Z,98599.59
2023-12-23T12:18:22.773Z,98595.44
2023-12-23T12:21:24.692Z,98591.88
2023-12-23T12:24:27.364Z,98614.41
2023-12-23T12:27:29.870Z,98601.50
2023-12-23T12:30:31.735Z,98594.63
2023-12-23T12:33:35.325Z,98580.78
2023-12-23T12:36:37.269Z,98598.25
2023-12-23T12:39:39.253Z,98611.16
2023-12-23T12:42:50.986Z,98600.94
2023-12-23T12:45:52.961Z,98600.19
2023-12-23T12:48:55.653Z,98594.28
2023-12-23T12:51:57.616Z,98570.28
2023-12-23T12:55:01.272Z,98589.19
2023-12-23T12:58:03.827Z,98594.50
2023-12-23T13:01:06.067Z,98579.06
2023-12-23T13:04:07.980Z,98606.47
2023-12-23T13:07:09.835Z,98598.81
2023-12-23T13:10:11.785Z,98597.16
2023-12-23T13:13:14.027Z,98594.50
2023-12-23T13:16:15.936Z,98590.09
2023-12-23T13:19:17.912Z,98583.06
2023-12-23T13:22:20.343Z,98583.00
2023-12-23T13:25:22.478Z,98600.16
2023-12-23T13:28:24.318Z,98595.09
2023-12-23T13:31:26.300Z,98593.34
2023-12-23T13:34:28.227Z,98591.59
2023-12-23T13:37:30.406Z,98597.91
2023-12-23T13:40:32.278Z,98589.28
2023-12-23T13:43:34.162Z,98615.88
2023-12-23T13:46:36.329Z,98589.13
2023-12-23T13:49:38.300Z,98596.94
2023-12-23T13:52:40.902Z,98614.19
2023-12-23T13:55:44.998Z,98598.84
2023-12-23T13:58:46.988Z,98609.25
2023-12-23T14:01:48.881Z,98621.50
2023-12-23T14:04:50.839Z,98624.94
2023-12-23T14:07:52.666Z,98625.06
2023-12-23T14:10:55.128Z,98625.97
2023-12-23T14:13:57.121Z,98615.69
2023-12-23T14:16:59.197Z,98626.16
2023-12-23T14:20:01.275Z,98622.75
2023-12-23T14:23:08.036Z,98633.16
2023-12-23T14:26:10.097Z,98623.78
2023-12-23T14:29:12.117Z,98629.03
2023-12-23T14:32:14.060Z,98637.81
2023-12-23T14:35:16.127Z,98618.06
2023-12-23T14:38:18.040Z,98627.50
2023-12-23T14:41:20.030Z,98627.66
2023-12-23T14:44:21.973Z,98597.59
2023-12-23T14:47:23.957Z,98632.81
2023-12-23T14:50:25.922Z,98581.38
2023-12-23T14:53:29.377Z,98632.81
2023-12-23T14:56:31.348Z,98620.88
2023-12-23T14:59:33.286Z,98626.91
2023-12-23T15:02:35.305Z,98645.09
2023-12-23T15:05:37.364Z,98632.19
2023-12-23T15:08:39.190Z,98630.53
2023-12-23T15:11:41.112Z,98631.44
2023-12-23T15:14:43.028Z,98648.53
2023-12-23T15:17:45.225Z,98592.88
2023-12-23T15:20:47.300Z,98652.06
2023-12-23T15:23:49.841Z,98574.94
2023-12-23T15:26:54.506Z,98629.09
2023-12-23T15:29:56.920Z,98634.09
2023-12-23T15:32:59.037Z,98625.53
2023-12-23T15:36:01.256Z,98646.22
2023-12-23T15:39:03.445Z,98635.09
2023-12-23T15:42:05.769Z,98657.31
2023-12-23T15:45:08.241Z,98603.38
2023-12-23T15:48:10.445Z,98670.25
2023-12-23T15:51:12.459Z,98674.53
2023-12-23T15:54:14.474Z,98674.69
2023-12-23T15:57:16.879Z,98686.78
2023-12-23T16:00:18.998Z,98673.00
2023-12-23T16:03:21.079Z,98686.75
2023-12-23T16:06:23.389Z,98696.22
2023-12-23T16:09:26.046Z,98699.66
2023-12-23T16:12:27.924Z,98694.59
2023-12-23T16:15:29.820Z,98666.50
2023-12-23T16:18:31.948Z,98705.91
2023-12-23T16:21:34.001Z,98714.59
2023-12-23T16:24:35.880Z,98722.47
2023-12-23T16:27:37.693Z,98720.88
2023-12-23T16:30:40.432Z,98731.28
2023-12-23T16:33:43.053Z,98734.03
2023-12-23T16:36:45.863Z,98751.28
2023-12-23T16:39:49.151Z,98735.88
2023-12-23T16:42:51.290Z,98747.09
2023-12-23T16:45:53.212Z,98751.56
2023-12-23T16:48:55.365Z,98753.22
2023-12-23T16:51:59.346Z,98753.25
2023-12-23T16:55:01.327Z,98763.56
2023-12-23T16:58:03.159Z,98772.28
2023-12-23T17:01:05.389Z,98782.66
2023-12-23T17:04:07.442Z,98765.59
2023-12-23T17:07:09.954Z,98802.50
2023-12-23T17:10:13.344Z,98812.06
2023-12-23T17:13:15.225Z,98817.28
2023-12-23T17:16:17.517Z,98757.25
2023-12-23T17:19:19.465Z,98819.13
2023-12-23T17:22:23.718Z,98806.25
2023-12-23T17:25:27.069Z,98822.59
2023-12-23T17:28:29.332Z,98819.25
2023-12-23T17:31:31.315Z,98848.59
2023-12-23T17:34:33.109Z,98829.72
2023-12-23T17:37:35.110Z,98832.38
2023-12-23T17:40:37.995Z,98821.28
2023-12-23T17:43:41.544Z,98842.81
2023-12-23T17:46:44.254Z,98855.72
2023-12-23T17:49:46.156Z,98861.72
2023-12-23T17:52:48.096Z,98866.09
2023-12-23T17:55:50.450Z,98851.50
2023-12-23T17:58:52.355Z,98854.09
2023-12-23T18:01:54.690Z,98855.00
2023-12-23T18:04:57.405Z,98858.44
2023-12-23T18:07:59.431Z,98861.97
2023-12-23T18:11:01.688Z,98857.75
2023-12-23T18:14:04.763Z,98866.34
2023-12-23T18:17:06.699Z,98870.66
2023-12-23T18:20:09.818Z,98869.81
2023-12-23T18:23:12.193Z,98863.81
2023-12-23T18:26:14.276Z,98873.31
2023-12-23T18:29:16.297Z,98874.19
2023-12-23T18:32:18.223Z,98859.66
2023-12-23T18:35:20.278Z,98871.69
2023-12-23T18:38:22.298Z,98899.25
2023-12-23T18:41:24.694Z,98883.75
2023-12-23T18:44:26.715Z,98901.81
2023-12-23T18:47:28.758Z,98887.13
2023-12-23T18:50:37.225Z,98890.56
2023-12-23T18:53:39.360Z,98906.84
2023-12-23T18:56:41.165Z,98911.06
2023-12-23T18:59:43.116Z,98915.41
2023-12-23T19:02:45.226Z,98928.41
2023-12-23T19:05:47.334Z,98914.59
2023-12-23T19:08:49.853Z,98921.47
2023-12-23T19:11:51.820Z,98917.97
2023-12-23T19:14:53.646Z,98923.97
2023-12-23T19:17:56.151Z,98928.34
2023-12-23T19:21:00.034Z,98907.69
2023-12-23T19:24:01.925Z,98917.16
2023-12-23T19:27:04.342Z,98883.63
2023-12-23T19:30:07.085Z,98935.16
2023-12-23T19:33:10.272Z,98913.66
2023-12-23T19:36:13.375Z,98929.13
2023-12-23T19:39:15.294Z,98925.66
2023-12-23T19:42:17.773Z,98942.91
2023-12-23T19:45:19.747Z,98949.00
2023-12-23T19:48:21.709Z,98948.09
2023-12-23T19:51:24.593Z,98954.13
2023-12-23T19:54:26.452Z,98944.72
2023-12-23T19:57:28.363Z,98964.56
2023-12-23T20:00:30.248Z,98946.53
2023-12-23T20:03:32.199Z,98964.50
2023-12-23T20:06:36.416Z,98956.78
2023-12-23T20:09:40.052Z,98941.34
2023-12-23T20:12:41.969Z,98953.31
2023-12-23T20:15:44.663Z,98955.06
2023-12-23T20:18:46.602Z,98975.75
2023-12-23T20:21:48.461Z,98953.34
2023-12-23T20:24:50.785Z,98966.22
2023-12-23T20:27:52.783Z,98978.31
2023-12-23T20:30:54.738Z,98958.50
2023-12-23T20:33:57.074Z,98931.94
2023-12-23T20:37:02.545Z,98988.69
2023-12-23T20:40:05.416Z,98945.75
2023-12-23T20:43:07.346Z,98967.19
2023-12-23T20:46:09.311Z,98969.78
2023-12-23T20:49:11.401Z,98986.19
2023-12-23T20:52:13.278Z,98997.41
2023-12-23T20:55:15.977Z,99012.94
2023-12-23T20:58:18.161Z,99012.09
2023-12-23T21:01:24.299Z,99010.34
2023-12-23T21:04:26.516Z,99011.28
2023-12-23T21:07:28.460Z,98999.16
2023-12-23T21:10:31.609Z,99013.84
2023-12-23T21:13:34.924Z,99011.38
2023-12-23T21:16:37.976Z,99014.00
2023-12-23T21:19:39.851Z,99028.72
2023-12-23T21:22:42.248Z,99027.03
2023-12-23T21:25:45.425Z,99040.81
2023-12-23T21:28:47.997Z,99003.88
2023-12-23T21:31:50.258Z,99044.28
2023-12-23T21:34:52.386Z,99057.22
2023-12-23T21:37:54.310Z,99055.44
2023-12-23T21:40:56.324Z,99058.91
2023-12-23T21:43:58.488Z,99068.44
2023-12-23T21:47:00.446Z,99054.66
2023-12-23T21:50:02.469Z,99059.00
2023-12-23T21:53:05.422Z,99087.47
2023-12-23T21:56:07.929Z,99090.09
2023-12-23T21:59:09.875Z,99080.59
2023-12-23T22:02:11.793Z,99103.03
2023-12-23T22:05:13.997Z,99099.63
2023-12-23T22:08:17.557Z,99096.16
2023-12-23T22:11:21.816Z,99091.00
2023-12-23T22:14:23.965Z,99097.09
2023-12-23T22:17:26.020Z,99104.84
2023-12-23T22:20:28.029Z,99110.03
2023-12-23T22:23:30.126Z,99101.38
2023-12-23T22:26:32.014Z,99105.69
2023-12-23T22:29:34.045Z,99118.63
2023-12-23T22:32:36.259Z,99112.66
2023-12-23T22:35:38.441Z,99110.09
2023-12-23T22:38:40.406Z,99106.69
2023-12-23T22:41:42.360Z,99123.97
2023-12-23T22:44:44.325Z,99117.06
2023-12-23T22:47:46.593Z,99114.56
2023-12-23T22:50:48.558Z,99118.84
2023-12-23T22:53:50.602Z,99109.41
2023-12-23T22:56:52.508Z,99131.84
2023-12-23T22:59:54.478Z,99127.53
2023-12-23T23:02:56.919Z,99125.81
2023-12-23T23:05:59.381Z,99137.06
2023-12-23T23:09:01.320Z,99126.75
2023-12-23T23:12:03.435Z,99137.09
2023-12-23T23:15:05.907Z,99141.44
2023-12-23T23:18:08.080Z,99138.00
2023-12-23T23:21:10.068Z,99088.94
2023-12-23T23:24:12.041Z,99139.72
2023-12-23T23:27:14.068Z,99164.75
2023-12-23T23:30:16.315Z,99175.97
2023-12-23T23:33:18.316Z,99178.56
2023-12-23T23:36:20.250Z,99182.88
2023-12-23T23:39:22.076Z,99179.44
2023-12-23T23:42:24.221Z,99182.03
2023-12-23T23:45:26.281Z,99181.16
2023-12-23T23:48:28.170Z,99181.16
2023-12-23T23:51:30.205Z,99185.50
2023-12-23T23:54:32.134Z,99186.38
2023-12-23T23:57:35.142Z,99172.59
